createdAt,value
2022-10-25T00:00:11.776Z,13
2022-10-25T00:03:11.709Z,12.9
2022-10-25T00:06:11.675Z,12.9
2022-10-25T00:09:11.706Z,12.8
2022-10-25T00:12:11.724Z,12.6
2022-10-25T00:15:11.791Z,12.6
2022-10-25T00:18:11.644Z,12.6
2022-10-25T00:21:11.676Z,12.6
2022-10-25T00:24:11.719Z,12.6
2022-10-25T00:27:12.570Z,12.6
2022-10-25T00:30:11.726Z,12.6
2022-10-25T00:33:11.682Z,12.6
2022-10-25T00:36:11.577Z,12.6
2022-10-25T00:39:11.719Z,12.6
2022-10-25T00:42:11.651Z,12.6
2022-10-25T00:45:11.686Z,12.8
2022-10-25T00:48:11.674Z,12.8
2022-10-25T00:51:11.742Z,12.8
2022-10-25T00:54:11.914Z,12.8
2022-10-25T00:57:11.641Z,12.8
2022-10-25T01:00:11.804Z,12.9
2022-10-25T01:03:11.658Z,12.8
2022-10-25T01:06:11.745Z,12.8
2022-10-25T01:09:11.715Z,12.8
2022-10-25T01:12:11.677Z,12.6
2022-10-25T01:15:11.733Z,12.6
2022-10-25T01:18:11.701Z,12.5
2022-10-25T01:21:11.827Z,12.4
2022-10-25T01:24:11.746Z,12.4
2022-10-25T01:27:11.745Z,12.4
2022-10-25T01:30:11.838Z,12.5
2022-10-25T01:33:11.711Z,12.5
2022-10-25T01:39:11.730Z,12.6
2022-10-25T01:42:11.857Z,12.6
2022-10-25T01:45:11.789Z,12.6
2022-10-25T01:48:11.813Z,12.6
2022-10-25T01:54:11.730Z,12.5
2022-10-25T01:57:11.742Z,12.5
2022-10-25T02:00:11.776Z,12.5
2022-10-25T02:03:11.682Z,12.5
2022-10-25T02:06:11.820Z,12.5
2022-10-25T02:09:11.840Z,12.5
2022-10-25T02:12:11.731Z,12.5
2022-10-25T02:15:11.846Z,12.5
2022-10-25T02:18:11.689Z,12.5
2022-10-25T02:21:11.774Z,12.5
2022-10-25T02:24:11.674Z,12.6
2022-10-25T02:27:11.921Z,12.5
2022-10-25T02:30:11.676Z,12.6
2022-10-25T02:33:11.672Z,12.6
2022-10-25T02:36:11.687Z,12.6
2022-10-25T02:39:11.783Z,12.5
2022-10-25T02:42:11.665Z,12.5
2022-10-25T02:45:11.692Z,12.5
2022-10-25T02:48:11.710Z,12.5
2022-10-25T02:51:11.615Z,12.5
2022-10-25T02:54:11.726Z,12.4
2022-10-25T02:57:11.661Z,12.2
2022-10-25T03:03:11.605Z,12
2022-10-25T03:06:11.635Z,12
2022-10-25T03:09:11.627Z,11.9
2022-10-25T03:12:11.744Z,11.8
2022-10-25T03:15:11.720Z,11.8
2022-10-25T03:18:11.667Z,11.9
2022-10-25T03:21:11.777Z,12
2022-10-25T03:24:11.710Z,12.1
2022-10-25T03:27:11.727Z,12.2
2022-10-25T03:30:11.682Z,12.4
2022-10-25T03:33:11.680Z,12.4
2022-10-25T03:36:11.667Z,12.5
2022-10-25T03:39:11.616Z,12.5
2022-10-25T03:42:11.625Z,12.5
2022-10-25T03:45:11.724Z,12.5
2022-10-25T03:48:11.583Z,12.6
2022-10-25T03:51:11.571Z,12.6
2022-10-25T03:54:11.644Z,12.6
2022-10-25T03:57:11.675Z,12.5
2022-10-25T04:00:11.698Z,12.5
2022-10-25T04:03:13.737Z,12.4
2022-10-25T04:06:11.614Z,12.2
2022-10-25T04:09:11.808Z,12.2
2022-10-25T04:12:11.621Z,12.4
2022-10-25T04:15:11.629Z,12.4
2022-10-25T04:18:11.663Z,12.4
2022-10-25T04:21:11.768Z,12.4
2022-10-25T04:24:15.569Z,12.5
2022-10-25T04:27:11.689Z,12.5
2022-10-25T04:30:11.610Z,12.5
2022-10-25T04:33:11.643Z,12.5
2022-10-25T04:36:11.675Z,12.6
2022-10-25T04:39:11.674Z,12.6
2022-10-25T04:42:11.920Z,12.6
2022-10-25T04:45:11.697Z,12.6
2022-10-25T04:48:11.810Z,12.6
2022-10-25T04:51:11.752Z,12.6
2022-10-25T04:54:11.651Z,12.5
2022-10-25T04:57:11.675Z,12.5
2022-10-25T05:00:11.794Z,12.5
2022-10-25T05:03:17.854Z,12.4
2022-10-25T05:06:11.651Z,12.4
2022-10-25T05:09:11.623Z,12.4
2022-10-25T05:12:11.738Z,12.4
2022-10-25T05:15:11.645Z,12.2
2022-10-25T05:18:11.734Z,12.4
2022-10-25T05:21:11.731Z,12.5
2022-10-25T05:24:13.574Z,12.5
2022-10-25T05:27:11.663Z,12.5
2022-10-25T05:30:11.705Z,12.5
2022-10-25T05:33:15.833Z,12.6
2022-10-25T05:36:11.668Z,12.6
2022-10-25T05:39:11.681Z,12.6
2022-10-25T05:42:11.762Z,12.6
2022-10-25T05:45:11.681Z,12.6
2022-10-25T05:48:11.678Z,12.6
2022-10-25T05:51:45.512Z,12.6
2022-10-25T05:54:11.622Z,12.6
2022-10-25T05:57:11.661Z,12.6
2022-10-25T06:00:11.823Z,12.6
2022-10-25T06:03:11.715Z,12.8
2022-10-25T06:06:11.655Z,12.8
2022-10-25T06:09:11.695Z,12.8
2022-10-25T06:12:16.322Z,12.8
2022-10-25T06:15:11.750Z,13
2022-10-25T06:18:11.652Z,13.1
2022-10-25T06:21:11.617Z,13.3
2022-10-25T06:24:11.706Z,13.3
2022-10-25T06:27:11.661Z,13.3
2022-10-25T06:30:11.756Z,13.4
2022-10-25T06:33:11.612Z,13.4
2022-10-25T06:36:12.464Z,13.5
2022-10-25T06:39:17.929Z,13.5
2022-10-25T06:42:11.723Z,13.6
2022-10-25T06:45:11.741Z,13.8
2022-10-25T06:48:11.756Z,13.9
2022-10-25T06:51:11.802Z,14
2022-10-25T06:54:11.655Z,14.1
2022-10-25T06:57:11.678Z,14.3
2022-10-25T07:03:11.762Z,14.9
2022-10-25T07:06:11.675Z,15.3
2022-10-25T07:09:11.635Z,15.5
2022-10-25T07:12:17.307Z,15.6
2022-10-25T07:15:11.812Z,15.5
2022-10-25T07:18:11.692Z,15.4
2022-10-25T07:21:11.669Z,15.3
2022-10-25T07:24:11.765Z,15.3
2022-10-25T07:27:11.660Z,15.3
2022-10-25T07:30:11.778Z,15.4
2022-10-25T07:33:11.660Z,15.5
2022-10-25T07:36:22.692Z,15.8
2022-10-25T07:39:11.691Z,15.9
2022-10-25T07:42:11.661Z,15.9
2022-10-25T07:45:11.663Z,16
2022-10-25T07:48:11.708Z,15.9
2022-10-25T07:51:11.695Z,15.8
2022-10-25T07:54:11.797Z,15.6
2022-10-25T07:57:11.691Z,15.4
2022-10-25T08:00:11.752Z,15.5
2022-10-25T08:03:12.304Z,15.6
2022-10-25T08:06:11.698Z,15.8
2022-10-25T08:09:46.049Z,15.9
2022-10-25T08:12:11.727Z,16
2022-10-25T08:15:11.790Z,16.3
2022-10-25T08:18:11.845Z,16.3
2022-10-25T08:21:14.882Z,16.3
2022-10-25T08:24:12.019Z,16.1
2022-10-25T08:27:11.741Z,16.3
2022-10-25T08:30:11.895Z,16.6
2022-10-25T08:33:17.079Z,17.1
2022-10-25T08:36:11.793Z,17.6
2022-10-25T08:39:11.688Z,17.4
2022-10-25T08:42:11.659Z,17.4
2022-10-25T08:45:11.703Z,18.1
2022-10-25T08:48:11.994Z,20.3
2022-10-25T08:51:11.625Z,23.6
2022-10-25T08:54:11.755Z,26.2
2022-10-25T08:57:26.826Z,28.1
2022-10-25T09:00:12.546Z,29.6
2022-10-25T09:03:16.730Z,31
2022-10-25T09:06:11.740Z,31.8
2022-10-25T09:09:11.657Z,32.4
2022-10-25T09:12:11.663Z,32.9
2022-10-25T09:15:11.815Z,33.5
2022-10-25T09:18:11.757Z,33.9
2022-10-25T09:21:24.782Z,34.2
2022-10-25T09:24:11.689Z,34.4
2022-10-25T09:27:12.483Z,34.5
2022-10-25T09:30:18.317Z,34.4
2022-10-25T09:33:12.069Z,34.2
2022-10-25T09:36:12.015Z,33.7
2022-10-25T09:39:18.121Z,33.6
2022-10-25T09:42:11.747Z,32.6
2022-10-25T09:45:11.713Z,32.6
2022-10-25T09:48:11.720Z,31.2
2022-10-25T09:51:11.712Z,30.9
2022-10-25T09:54:11.656Z,29.5
2022-10-25T09:57:11.710Z,30.4
2022-10-25T10:00:11.884Z,30.8
2022-10-25T10:03:12.963Z,30.8
2022-10-25T10:06:11.686Z,30.6
2022-10-25T10:09:11.680Z,29.9
2022-10-25T10:12:12.500Z,30.4
2022-10-25T10:15:11.691Z,30.8
2022-10-25T10:18:11.701Z,31
2022-10-25T10:21:11.742Z,31.1
2022-10-25T10:24:11.699Z,31.2
2022-10-25T10:27:11.667Z,31.5
2022-10-25T10:30:11.744Z,31.1
2022-10-25T10:33:11.830Z,31.4
2022-10-25T10:36:11.653Z,29.9
2022-10-25T10:39:12.683Z,28.1
2022-10-25T10:42:17.539Z,27.9
2022-10-25T10:45:11.718Z,31
2022-10-25T10:48:11.757Z,30.1
2022-10-25T10:51:46.219Z,28
2022-10-25T10:54:11.778Z,30.5
2022-10-25T10:57:11.679Z,32
2022-10-25T11:00:11.949Z,32
2022-10-25T11:03:11.691Z,33.9
2022-10-25T11:06:11.634Z,34.6
2022-10-25T11:09:11.675Z,34.6
2022-10-25T11:12:11.727Z,33.7
2022-10-25T11:15:11.731Z,31.8
2022-10-25T11:18:11.693Z,29.8
2022-10-25T11:21:11.597Z,28.7
2022-10-25T11:24:11.662Z,31.1
2022-10-25T11:27:11.797Z,32.7
2022-10-25T11:30:11.976Z,32.4
2022-10-25T11:33:11.670Z,29.6
2022-10-25T11:36:11.724Z,27.6
2022-10-25T11:39:11.706Z,27.9
2022-10-25T11:42:11.853Z,29.5
2022-10-25T11:45:11.746Z,31
2022-10-25T11:48:11.631Z,31.4
2022-10-25T11:51:12.042Z,32.7
2022-10-25T11:54:11.697Z,30.6
2022-10-25T11:57:11.726Z,27.8
2022-10-25T12:00:11.895Z,27.2
2022-10-25T12:03:12.225Z,29.3
2022-10-25T12:06:11.665Z,33.7
2022-10-25T12:09:11.693Z,34.5
2022-10-25T12:12:11.694Z,37
2022-10-25T12:15:11.746Z,36.2
2022-10-25T12:18:11.752Z,33.2
2022-10-25T12:21:11.657Z,31.8
2022-10-25T12:24:11.657Z,34.2
2022-10-25T12:27:11.661Z,33.2
2022-10-25T12:30:11.863Z,31.4
2022-10-25T12:33:11.720Z,30.1
2022-10-25T12:36:11.684Z,29
2022-10-25T12:39:11.652Z,28.1
2022-10-25T12:42:11.652Z,27.9
2022-10-25T12:45:11.815Z,28.5
2022-10-25T12:48:11.632Z,29.3
2022-10-25T12:51:12.953Z,32.4
2022-10-25T12:54:11.669Z,34
2022-10-25T12:57:11.709Z,34.2
2022-10-25T13:00:12.283Z,32.4
2022-10-25T13:03:20.756Z,29.4
2022-10-25T13:06:11.789Z,27.4
2022-10-25T13:09:11.607Z,26
2022-10-25T13:12:11.822Z,24.6
2022-10-25T13:15:11.745Z,23.5
2022-10-25T13:18:11.721Z,22.2
2022-10-25T13:21:11.644Z,21.5
2022-10-25T13:24:12.033Z,23.4
2022-10-25T13:27:11.773Z,23.3
2022-10-25T13:30:12.717Z,22.2
2022-10-25T13:33:11.753Z,22.4
2022-10-25T13:36:11.801Z,24.3
2022-10-25T13:39:11.762Z,27.4
2022-10-25T13:42:11.756Z,29.1
2022-10-25T13:45:11.764Z,30.3
2022-10-25T13:48:11.827Z,30.3
2022-10-25T13:51:11.762Z,30.3
2022-10-25T13:54:16.475Z,30.5
2022-10-25T13:57:11.793Z,30.4
2022-10-25T14:00:13.468Z,28.3
2022-10-25T14:03:11.798Z,25.4
2022-10-25T14:06:13.924Z,23.5
2022-10-25T14:09:11.738Z,22.1
2022-10-25T14:12:22.759Z,24.4
2022-10-25T14:15:11.753Z,24.4
2022-10-25T14:18:11.796Z,22.4
2022-10-25T14:21:11.728Z,21.2
2022-10-25T14:24:11.804Z,20.5
2022-10-25T14:27:11.751Z,20.3
2022-10-25T14:30:12.167Z,20.3
2022-10-25T14:33:11.741Z,20
2022-10-25T14:36:11.797Z,19.5
2022-10-25T14:39:11.774Z,18.9
2022-10-25T14:42:11.846Z,18.4
2022-10-25T14:45:11.906Z,18
2022-10-25T14:48:11.802Z,17.8
2022-10-25T14:51:11.805Z,17.5
2022-10-25T14:54:11.798Z,17.4
2022-10-25T14:57:11.837Z,17.2
2022-10-25T15:00:11.870Z,17.1
2022-10-25T15:03:11.786Z,17
2022-10-25T15:06:11.786Z,17
2022-10-25T15:09:54.314Z,16.9
2022-10-25T15:12:11.727Z,16.9
2022-10-25T15:15:11.771Z,17
2022-10-25T15:18:11.800Z,17.5
2022-10-25T15:21:11.803Z,18
2022-10-25T15:24:11.776Z,17.6
2022-10-25T15:27:11.787Z,17.2
2022-10-25T15:30:12.587Z,16.9
2022-10-25T15:33:11.769Z,16.5
2022-10-25T15:36:11.801Z,16.1
2022-10-25T15:39:26.032Z,15.8
2022-10-25T15:42:17.556Z,15.5
2022-10-25T15:45:11.754Z,15.1
2022-10-25T15:48:11.804Z,14.9
2022-10-25T15:51:11.731Z,14.6
2022-10-25T15:54:11.786Z,14.4
2022-10-25T15:57:11.711Z,14.3
2022-10-25T16:00:11.860Z,14
2022-10-25T16:03:11.750Z,13.9
2022-10-25T16:06:11.695Z,13.6
2022-10-25T16:09:11.756Z,13.5
2022-10-25T16:12:11.718Z,13.3
2022-10-25T16:15:11.740Z,13
2022-10-25T16:18:11.711Z,12.8
2022-10-25T16:21:11.735Z,12.6
2022-10-25T16:24:11.719Z,12.5
2022-10-25T16:27:11.754Z,12.4
2022-10-25T16:30:11.761Z,12.1
2022-10-25T16:33:11.643Z,12
2022-10-25T16:36:11.710Z,11.9
2022-10-25T16:39:11.745Z,11.8
2022-10-25T16:42:11.658Z,11.5
2022-10-25T16:45:11.683Z,11.5
2022-10-25T16:48:12.091Z,11.4
2022-10-25T16:51:11.682Z,11.3
2022-10-25T16:54:11.729Z,11.1
2022-10-25T16:57:11.733Z,11
2022-10-25T17:00:11.926Z,10.9
2022-10-25T17:03:11.715Z,10.8
2022-10-25T17:06:49.858Z,10.6
2022-10-25T17:09:11.667Z,10.6
2022-10-25T17:12:11.773Z,10.5
2022-10-25T17:15:11.754Z,10.4
2022-10-25T17:18:15.315Z,10.3
2022-10-25T17:21:11.711Z,10.1
2022-10-25T17:24:12.210Z,10.1
2022-10-25T17:27:11.836Z,10
2022-10-25T17:30:11.826Z,10
2022-10-25T17:33:11.698Z,9.9
2022-10-25T17:36:11.742Z,9.9
2022-10-25T17:39:11.736Z,9.9
2022-10-25T17:42:11.680Z,10
2022-10-25T17:45:11.762Z,10
2022-10-25T17:48:11.665Z,10.1
2022-10-25T17:51:11.786Z,10.1
2022-10-25T17:54:11.704Z,10
2022-10-25T17:57:11.607Z,10.1
2022-10-25T18:00:11.765Z,10.1
2022-10-25T18:03:11.681Z,10.1
2022-10-25T18:06:12.077Z,10.1
2022-10-25T18:09:11.677Z,10.1
2022-10-25T18:12:11.832Z,10.1
2022-10-25T18:15:11.717Z,10
2022-10-25T18:18:11.678Z,9.9
2022-10-25T18:21:11.913Z,9.9
2022-10-25T18:24:11.738Z,9.8
2022-10-25T18:27:17.259Z,9.6
2022-10-25T18:30:11.775Z,9.5
2022-10-25T18:33:11.704Z,9.5
2022-10-25T18:36:11.733Z,9.4
2022-10-25T18:39:11.684Z,9.4
2022-10-25T18:42:11.750Z,9.4
2022-10-25T18:45:11.739Z,9.4
2022-10-25T18:48:11.690Z,9.4
2022-10-25T18:51:11.653Z,9.4
2022-10-25T18:54:11.755Z,9.4
2022-10-25T18:57:11.797Z,9.3
2022-10-25T19:00:11.784Z,9.4
2022-10-25T19:03:11.669Z,9.5
2022-10-25T19:06:11.747Z,9.5
2022-10-25T19:09:11.803Z,9.5
2022-10-25T19:12:11.703Z,9.4
2022-10-25T19:15:11.746Z,9.3
2022-10-25T19:18:11.685Z,9.3
2022-10-25T19:21:11.733Z,9.1
2022-10-25T19:24:11.765Z,9
2022-10-25T19:27:11.735Z,9
2022-10-25T19:30:11.651Z,9
2022-10-25T19:33:11.725Z,8.9
2022-10-25T19:36:11.832Z,8.8
2022-10-25T19:39:11.773Z,8.8
2022-10-25T19:42:11.804Z,8.8
2022-10-25T19:45:11.735Z,8.8
2022-10-25T19:48:11.757Z,8.6
2022-10-25T19:51:11.708Z,8.6
2022-10-25T19:54:11.799Z,8.5
2022-10-25T19:57:11.690Z,8.4
2022-10-25T20:00:18.113Z,8.3
2022-10-25T20:03:11.646Z,8.3
2022-10-25T20:06:11.742Z,8.3
2022-10-25T20:09:11.657Z,8.1
2022-10-25T20:12:11.805Z,8
2022-10-25T20:18:11.678Z,8
2022-10-25T20:21:11.728Z,8
2022-10-25T20:24:11.780Z,8
2022-10-25T20:27:11.716Z,7.9
2022-10-25T20:30:11.736Z,7.9
2022-10-25T20:33:11.764Z,7.9
2022-10-25T20:36:11.728Z,7.9
2022-10-25T20:39:11.731Z,7.9
2022-10-25T20:42:11.657Z,7.9
2022-10-25T20:45:11.967Z,7.9
2022-10-25T20:48:11.656Z,7.9
2022-10-25T20:51:22.258Z,7.7
2022-10-25T20:54:12.240Z,7.7
2022-10-25T20:57:11.713Z,7.6
2022-10-25T21:00:11.851Z,7.6
2022-10-25T21:03:11.709Z,7.5
2022-10-25T21:06:11.680Z,7.5
2022-10-25T21:09:11.639Z,7.5
2022-10-25T21:12:11.764Z,7.5
2022-10-25T21:15:18.504Z,7.5
2022-10-25T21:18:11.711Z,7.6
2022-10-25T21:21:11.649Z,7.5
2022-10-25T21:24:11.710Z,7.5
2022-10-25T21:27:11.748Z,7.5
2022-10-25T21:30:11.712Z,7.6
2022-10-25T21:33:11.709Z,7.6
2022-10-25T21:36:11.752Z,7.7
2022-10-25T21:39:11.699Z,7.7
2022-10-25T21:42:11.691Z,7.7
2022-10-25T21:45:11.680Z,7.7
2022-10-25T21:48:11.775Z,7.7
2022-10-25T21:51:11.653Z,7.7
2022-10-25T21:54:11.749Z,7.7
2022-10-25T21:57:11.705Z,7.7
2022-10-25T22:00:12.233Z,7.9
2022-10-25T22:03:11.767Z,8
2022-10-25T22:06:11.643Z,8.1
2022-10-25T22:09:11.708Z,8.1
2022-10-25T22:12:11.728Z,8
2022-10-25T22:15:11.687Z,7.9
2022-10-25T22:18:11.700Z,7.7
2022-10-25T22:21:11.680Z,7.7
2022-10-25T22:24:11.665Z,7.6
2022-10-25T22:27:11.679Z,7.5
2022-10-25T22:30:11.826Z,7.5
2022-10-25T22:33:11.658Z,7.6
2022-10-25T22:36:11.761Z,7.5
2022-10-25T22:39:11.761Z,7.5
2022-10-25T22:42:11.708Z,7.5
2022-10-25T22:45:11.733Z,7.5
2022-10-25T22:48:11.724Z,7.4
2022-10-25T22:51:11.639Z,7.2
2022-10-25T22:54:11.725Z,7.1
2022-10-25T22:57:11.815Z,7.1
2022-10-25T23:00:11.750Z,7
2022-10-25T23:03:12.036Z,7
2022-10-25T23:06:11.694Z,7
2022-10-25T23:09:11.893Z,7
2022-10-25T23:12:11.671Z,7
2022-10-25T23:15:11.738Z,7
2022-10-25T23:18:11.697Z,7
2022-10-25T23:21:11.728Z,6.9
2022-10-25T23:24:11.653Z,6.9
2022-10-25T23:27:11.663Z,6.9
2022-10-25T23:30:17.794Z,6.7
2022-10-25T23:33:11.668Z,6.6
2022-10-25T23:36:11.658Z,6.6
2022-10-25T23:39:11.738Z,6.5
2022-10-25T23:42:11.699Z,6.5
2022-10-25T23:45:11.740Z,6.6
2022-10-25T23:48:11.691Z,6.6
2022-10-25T23:54:11.799Z,6.6
2022-10-25T23:57:11.657Z,6.6
